Airport View

Enter AWOS ICAO identifier for current METAR.

ex. KFNL

KGKJ 011153Z AUTO 21007KT 10SM FEW010 07/06 A2990 RMK AO2 SLP127 T00720056 10106 20072 53013 $

1 Oct 2020 12:20

Frequency: 121.425

Phone: 814-337-2590

Other Area AWOS: KFKL - KHZY - KERI - KYNG

TAF KFKL 011136Z 0112/0212 22005KT P6SM SCT035 FM011600 26006KT P6SM OVC035 FM020900 22003KT P6SM BKN015 FM021100 22003KT P6SM BKN007